createdAt,value
2022-08-17T00:01:31.438Z,23.11
2022-08-17T00:04:10.888Z,23.14
2022-08-17T00:06:38.434Z,23.12
2022-08-17T00:09:05.643Z,23.04
2022-08-17T00:11:38.345Z,23.05
2022-08-17T00:14:13.684Z,22.99
2022-08-17T00:16:55.376Z,22.94
2022-08-17T00:19:25.834Z,22.88
2022-08-17T00:22:32.277Z,22.88
2022-08-17T00:24:42.876Z,22.76
2022-08-17T00:27:09.393Z,22.78
2022-08-17T00:29:35.856Z,22.76
2022-08-17T00:33:16.006Z,22.73
2022-08-17T00:34:49.861Z,22.74
2022-08-17T00:37:16.628Z,22.68
2022-08-17T00:39:43.180Z,22.58
2022-08-17T00:42:18.564Z,22.54
2022-08-17T00:44:46.028Z,22.55
2022-08-17T00:47:12.508Z,22.59
2022-08-17T00:49:38.988Z,22.60
2022-08-17T00:52:15.311Z,22.53
2022-08-17T00:54:45.000Z,22.44
2022-08-17T00:57:18.490Z,22.46
2022-08-17T01:00:01.513Z,22.44
2022-08-17T01:02:34.398Z,22.46
2022-08-17T01:05:12.527Z,22.51
2022-08-17T01:07:39.285Z,22.47
2022-08-17T01:10:58.881Z,22.46
2022-08-17T01:12:58.065Z,22.43
2022-08-17T01:15:24.613Z,22.44
2022-08-17T01:17:51.147Z,22.44
2022-08-17T01:20:17.828Z,22.41
2022-08-17T01:22:44.426Z,22.41
2022-08-17T01:25:12.579Z,22.38
2022-08-17T01:27:40.545Z,22.36
2022-08-17T01:30:57.108Z,22.32
2022-08-17T01:32:56.857Z,22.29
2022-08-17T01:35:23.443Z,22.24
2022-08-17T01:37:50.005Z,22.15
2022-08-17T01:40:25.550Z,22.15
2022-08-17T01:42:58.496Z,22.11
2022-08-17T01:45:30.374Z,22.08
2022-08-17T01:47:56.983Z,21.98
2022-08-17T01:50:30.581Z,21.95
2022-08-17T01:53:04.174Z,21.90
2022-08-17T01:55:40.882Z,21.75
2022-08-17T01:58:09.706Z,21.73
2022-08-17T02:00:59.797Z,21.69
2022-08-17T02:03:25.220Z,21.63
2022-08-17T02:05:53.190Z,21.64
2022-08-17T02:08:21.408Z,21.67
2022-08-17T02:11:11.611Z,21.63
2022-08-17T02:13:38.343Z,21.57
2022-08-17T02:16:05.515Z,21.54
2022-08-17T02:18:32.111Z,21.45
2022-08-17T02:20:58.686Z,21.45
2022-08-17T02:23:27.765Z,21.51
2022-08-17T02:25:57.642Z,21.51
2022-08-17T02:28:24.111Z,21.43
2022-08-17T02:31:00.690Z,21.41
2022-08-17T02:33:43.067Z,21.31
2022-08-17T02:36:12.143Z,21.26
2022-08-17T02:38:40.585Z,21.21
2022-08-17T02:41:07.921Z,21.19
2022-08-17T02:43:34.897Z,21.15
2022-08-17T02:46:01.485Z,21.14
2022-08-17T02:48:31.611Z,21.17
2022-08-17T02:50:59.815Z,21.02
2022-08-17T02:53:26.683Z,21.01
2022-08-17T02:55:53.636Z,21.07
2022-08-17T02:58:34.332Z,21.01
2022-08-17T03:01:03.667Z,21.00
2022-08-17T03:03:30.209Z,21.02
2022-08-17T03:05:56.682Z,20.89
2022-08-17T03:08:23.382Z,20.92
2022-08-17T03:10:50.427Z,20.91
2022-08-17T03:13:17.283Z,20.91
2022-08-17T03:15:45.366Z,20.86
2022-08-17T03:18:21.929Z,20.85
2022-08-17T03:20:57.528Z,20.83
2022-08-17T03:23:25.583Z,20.83
2022-08-17T03:25:53.889Z,20.85
2022-08-17T03:28:21.740Z,20.81
2022-08-17T03:30:48.931Z,20.69
2022-08-17T03:33:16.190Z,20.69
2022-08-17T03:35:43.109Z,20.69
2022-08-17T03:38:11.293Z,20.70
2022-08-17T03:40:56.624Z,20.67
2022-08-17T03:43:27.638Z,20.68
2022-08-17T03:46:27.689Z,20.62
2022-08-17T03:49:14.163Z,20.53
2022-08-17T03:51:59.105Z,20.43
2022-08-17T03:54:43.863Z,20.46
2022-08-17T03:57:11.094Z,20.52
2022-08-17T03:59:38.636Z,20.51
2022-08-17T04:02:27.600Z,20.55
2022-08-17T04:04:54.590Z,20.58
2022-08-17T04:07:23.736Z,20.52
2022-08-17T04:09:50.720Z,20.48
2022-08-17T04:12:19.526Z,20.40
2022-08-17T04:14:52.162Z,20.36
2022-08-17T04:17:26.977Z,20.38
2022-08-17T04:19:54.801Z,20.38
2022-08-17T04:22:32.656Z,20.42
2022-08-17T04:25:17.715Z,20.48
2022-08-17T04:27:44.279Z,20.49
2022-08-17T04:30:11.910Z,20.48
2022-08-17T04:33:06.131Z,20.41
2022-08-17T04:35:46.244Z,20.35
2022-08-17T04:38:17.492Z,20.23
2022-08-17T04:41:04.036Z,20.15
2022-08-17T04:43:32.554Z,20.11
2022-08-17T04:46:02.157Z,20.21
2022-08-17T04:48:36.574Z,20.26
2022-08-17T04:51:13.617Z,20.26
2022-08-17T04:53:44.108Z,20.22
2022-08-17T04:56:16.577Z,20.17
2022-08-17T04:58:50.338Z,20.17
2022-08-17T05:01:24.090Z,20.22
2022-08-17T05:03:53.834Z,20.22
2022-08-17T05:06:20.968Z,20.22
2022-08-17T05:08:47.632Z,20.22
2022-08-17T05:11:14.926Z,20.27
2022-08-17T05:13:41.457Z,20.28
2022-08-17T05:16:09.091Z,20.35
2022-08-17T05:18:37.165Z,20.40
2022-08-17T05:21:03.787Z,20.41
2022-08-17T05:23:41.769Z,20.47
2022-08-17T05:26:26.457Z,20.56
2022-08-17T05:29:02.478Z,20.60
2022-08-17T05:31:30.748Z,20.54
2022-08-17T05:33:58.153Z,20.50
2022-08-17T05:36:42.080Z,20.55
2022-08-17T05:39:16.725Z,20.57
2022-08-17T05:41:45.408Z,20.64
2022-08-17T05:44:11.905Z,20.64
2022-08-17T05:46:43.416Z,20.66
2022-08-17T05:49:22.476Z,20.67
2022-08-17T05:52:04.187Z,20.69
2022-08-17T05:54:57.046Z,20.75
2022-08-17T05:57:56.267Z,20.84
2022-08-17T06:00:31.381Z,20.84
2022-08-17T06:03:02.738Z,20.87
2022-08-17T06:05:38.313Z,20.93
2022-08-17T06:08:10.980Z,20.93
2022-08-17T06:11:02.580Z,20.91
2022-08-17T06:13:53.337Z,20.84
2022-08-17T06:16:34.066Z,20.93
2022-08-17T06:19:12.071Z,21.02
2022-08-17T06:21:43.550Z,21.07
2022-08-17T06:24:35.878Z,21.14
2022-08-17T06:27:20.284Z,21.21
2022-08-17T06:29:46.745Z,21.28
2022-08-17T06:32:14.327Z,21.31
2022-08-17T06:34:43.618Z,21.36
2022-08-17T06:37:10.127Z,21.41
2022-08-17T06:40:01.515Z,21.44
2022-08-17T06:42:54.982Z,21.49
2022-08-17T06:45:35.927Z,21.53
2022-08-17T06:48:12.888Z,21.57
2022-08-17T06:50:46.533Z,21.63
2022-08-17T06:53:23.411Z,21.66
2022-08-17T06:56:06.149Z,21.72
2022-08-17T06:58:35.625Z,21.75
2022-08-17T07:01:09.141Z,21.79
2022-08-17T07:03:46.066Z,21.83
2022-08-17T07:06:19.792Z,21.86
2022-08-17T07:49:56.800Z,22.54
2022-08-17T07:52:51.439Z,22.54
2022-08-17T07:55:31.076Z,22.54
2022-08-17T07:57:59.457Z,22.54
2022-08-17T08:00:32.102Z,22.55
2022-08-17T08:03:19.176Z,22.57
2022-08-17T08:05:57.565Z,22.56
2022-08-17T08:08:37.333Z,22.56
2022-08-17T08:11:17.788Z,22.56
2022-08-17T08:13:45.647Z,22.56
2022-08-17T08:16:15.138Z,22.58
2022-08-17T08:18:55.842Z,22.63
2022-08-17T08:21:29.174Z,22.67
2022-08-17T08:24:00.320Z,22.71
2022-08-17T08:26:32.563Z,22.74
2022-08-17T08:29:23.651Z,22.77
2022-08-17T08:31:53.366Z,22.83
2022-08-17T08:35:00.940Z,22.83
2022-08-17T08:37:57.706Z,22.81
2022-08-17T08:41:11.917Z,22.81
2022-08-17T08:44:17.080Z,22.78
2022-08-17T08:46:59.870Z,22.76
2022-08-17T08:50:05.046Z,22.72
2022-08-17T08:52:50.373Z,22.71
2022-08-17T08:55:26.045Z,22.67
2022-08-17T08:58:42.019Z,22.68
2022-08-17T09:01:39.372Z,22.66
2022-08-17T09:04:50.198Z,22.67
2022-08-17T09:07:50.355Z,22.66
2022-08-17T09:10:30.593Z,22.68
2022-08-17T09:13:28.676Z,22.68
2022-08-17T09:16:19.570Z,22.68
2022-08-17T09:19:00.123Z,22.66
2022-08-17T09:21:54.474Z,22.67
2022-08-17T09:24:48.888Z,22.68
2022-08-17T09:27:19.575Z,22.68
2022-08-17T09:29:50.322Z,22.69
2022-08-17T09:32:25.408Z,22.71
2022-08-17T09:34:59.949Z,22.73
2022-08-17T09:37:29.453Z,22.74
2022-08-17T09:40:14.165Z,22.74
2022-08-17T09:43:12.596Z,22.72
2022-08-17T09:45:57.103Z,22.71
2022-08-17T09:48:35.750Z,22.70
2022-08-17T09:51:24.439Z,22.70
2022-08-17T09:53:51.471Z,22.71
2022-08-17T09:57:06.029Z,22.74
2022-08-17T09:59:54.976Z,22.71
2022-08-17T10:02:43.276Z,22.68
2022-08-17T10:05:18.023Z,22.64
2022-08-17T10:07:57.351Z,22.63
2022-08-17T10:10:39.910Z,22.62
2022-08-17T10:13:39.505Z,22.59
2022-08-17T10:16:38.224Z,22.57
2022-08-17T10:19:30.669Z,22.56
2022-08-17T10:22:35.064Z,22.55
2022-08-17T10:25:24.864Z,22.54
2022-08-17T10:28:05.101Z,22.51
2022-08-17T10:30:34.951Z,22.49
2022-08-17T10:33:15.908Z,22.47
2022-08-17T10:35:57.496Z,22.45
2022-08-17T10:38:30.265Z,22.43
2022-08-17T10:40:59.587Z,22.39
2022-08-17T10:44:37.505Z,22.38
2022-08-17T10:47:01.416Z,22.35
2022-08-17T10:49:39.188Z,22.27
2022-08-17T10:52:20.616Z,22.23
2022-08-17T10:54:57.933Z,22.22
2022-08-17T10:57:31.718Z,22.24
2022-08-17T11:00:00.402Z,22.27
2022-08-17T11:02:40.647Z,22.29
2022-08-17T11:05:44.071Z,22.29
2022-08-17T11:08:32.556Z,22.28
2022-08-17T11:11:38.402Z,22.31
2022-08-17T11:14:42.589Z,22.34
2022-08-17T11:17:21.773Z,22.39
2022-08-17T11:20:00.476Z,22.48
2022-08-17T11:23:04.530Z,22.57
2022-08-17T11:25:50.901Z,22.71
2022-08-17T11:28:19.682Z,22.93
2022-08-17T11:30:54.968Z,23.05
2022-08-17T11:33:34.045Z,23.11
2022-08-17T11:36:18.153Z,23.19
2022-08-17T11:38:52.448Z,23.29
2022-08-17T11:41:27.366Z,23.37
2022-08-17T11:44:31.100Z,23.38
2022-08-17T11:47:28.369Z,23.44
2022-08-17T11:50:45.305Z,23.46
2022-08-17T11:53:39.567Z,23.48
2022-08-17T11:56:28.964Z,23.50
2022-08-17T11:58:56.333Z,23.52
2022-08-17T12:01:22.718Z,23.50
2022-08-17T12:03:58.838Z,23.51
2022-08-17T12:06:30.520Z,23.54
2022-08-17T12:09:10.480Z,23.60
2022-08-17T12:12:12.554Z,23.61
2022-08-17T12:15:09.459Z,23.62
2022-08-17T12:17:40.794Z,23.64
2022-08-17T12:20:39.986Z,23.71
2022-08-17T12:23:25.576Z,23.74
2022-08-17T12:26:07.206Z,23.78
2022-08-17T12:28:38.702Z,23.80
2022-08-17T12:31:21.994Z,23.86
2022-08-17T12:33:49.966Z,23.90
2022-08-17T12:36:25.207Z,23.95
2022-08-17T12:39:13.697Z,24.25
2022-08-17T12:41:47.507Z,24.48
2022-08-17T12:44:29.272Z,24.58
2022-08-17T12:47:21.825Z,24.76
2022-08-17T12:49:52.219Z,24.79
2022-08-17T12:52:32.791Z,24.71
2022-08-17T12:55:06.883Z,24.64
2022-08-17T12:57:43.768Z,24.76
2022-08-17T13:00:37.949Z,24.44
2022-08-17T13:03:07.730Z,24.41
2022-08-17T13:05:53.582Z,24.26
2022-08-17T13:08:26.053Z,24.13
2022-08-17T13:11:02.896Z,24.01
2022-08-17T13:13:32.627Z,23.91
2022-08-17T13:16:03.069Z,24.04
2022-08-17T13:18:46.561Z,24.09
2022-08-17T13:21:19.390Z,24.18
2022-08-17T13:24:04.255Z,24.38
2022-08-17T13:26:35.644Z,24.41
2022-08-17T13:29:06.243Z,24.26
2022-08-17T13:31:51.976Z,24.23
2022-08-17T13:34:25.459Z,24.32
2022-08-17T13:37:19.027Z,24.33
2022-08-17T13:39:48.288Z,24.46
2022-08-17T13:42:33.520Z,24.89
2022-08-17T13:45:36.483Z,24.60
2022-08-17T13:48:23.974Z,24.64
2022-08-17T13:50:56.684Z,24.42
2022-08-17T13:53:28.250Z,24.33
2022-08-17T13:56:33.489Z,24.14
2022-08-17T13:59:04.492Z,23.94
2022-08-17T14:01:39.407Z,24.31
2022-08-17T14:04:09.258Z,24.49
2022-08-17T14:06:54.128Z,24.55
2022-08-17T14:09:26.167Z,24.77
2022-08-17T14:11:55.424Z,24.85
2022-08-17T14:14:23.239Z,24.56
2022-08-17T14:16:51.190Z,24.42
2022-08-17T14:19:18.118Z,24.48
2022-08-17T14:21:46.449Z,24.61
2022-08-17T14:24:20.175Z,24.51
2022-08-17T14:26:46.794Z,24.25
2022-08-17T14:29:15.579Z,24.21
2022-08-17T14:31:42.455Z,24.32
2022-08-17T14:34:15.425Z,24.17
2022-08-17T14:36:48.286Z,24.03
2022-08-17T14:39:16.884Z,24.10
2022-08-17T14:41:43.647Z,24.01
2022-08-17T14:44:13.445Z,23.85
2022-08-17T14:46:41.742Z,23.95
2022-08-17T14:49:11.809Z,24.03
2022-08-17T14:51:43.515Z,24.17
2022-08-17T14:54:11.491Z,24.43
2022-08-17T14:57:23.234Z,24.33
2022-08-17T14:59:44.776Z,24.18
2022-08-17T15:02:11.905Z,24.19
2022-08-17T15:04:43.413Z,24.22
2022-08-17T15:07:12.144Z,24.18
2022-08-17T15:09:39.027Z,24.19
2022-08-17T15:12:06.679Z,24.04
2022-08-17T15:14:36.540Z,24.13
2022-08-17T15:17:03.933Z,24.18
2022-08-17T15:19:30.539Z,24.37
2022-08-17T15:21:57.128Z,24.44
2022-08-17T15:24:23.601Z,24.37
2022-08-17T15:26:50.146Z,24.23
2022-08-17T15:29:16.642Z,24.20
2022-08-17T15:31:43.276Z,24.11
2022-08-17T15:34:09.805Z,24.10
2022-08-17T15:36:37.013Z,24.07
2022-08-17T15:39:05.387Z,24.15
2022-08-17T15:41:32.467Z,24.14
2022-08-17T15:43:59.035Z,24.17
2022-08-17T15:46:26.493Z,24.21
2022-08-17T15:48:58.959Z,24.44
2022-08-17T15:51:34.768Z,24.55
2022-08-17T15:54:18.750Z,24.67
2022-08-17T15:56:48.766Z,24.76
2022-08-17T15:59:15.384Z,24.88
2022-08-17T16:03:13.251Z,24.96
2022-08-17T16:04:30.675Z,24.98
2022-08-17T16:06:58.752Z,24.86
2022-08-17T16:09:25.258Z,24.75
2022-08-17T16:11:51.903Z,24.57
2022-08-17T16:14:22.339Z,24.60
2022-08-17T16:16:50.606Z,24.56
2022-08-17T16:19:17.086Z,24.41
2022-08-17T16:21:43.627Z,24.48
2022-08-17T16:24:13.718Z,24.60
2022-08-17T16:26:42.425Z,24.66
2022-08-17T16:29:09.042Z,24.72
2022-08-17T16:31:37.535Z,24.72
2022-08-17T16:34:17.411Z,24.68
2022-08-17T16:36:54.996Z,24.69
2022-08-17T16:39:29.022Z,24.69
2022-08-17T16:41:56.514Z,24.53
2022-08-17T16:44:24.026Z,24.67
2022-08-17T16:46:50.709Z,24.81
2022-08-17T16:49:35.315Z,24.79
2022-08-17T16:52:03.912Z,24.75
2022-08-17T16:54:30.404Z,24.65
2022-08-17T16:56:56.980Z,24.57
2022-08-17T16:59:30.866Z,24.62
2022-08-17T17:02:04.747Z,24.56
2022-08-17T17:04:35.153Z,24.59
2022-08-17T17:07:42.656Z,24.46
2022-08-17T17:10:22.983Z,24.43
2022-08-17T17:13:03.781Z,24.36
2022-08-17T17:15:47.217Z,24.25
2022-08-17T17:18:15.730Z,24.16
2022-08-17T17:20:58.731Z,24.10
2022-08-17T17:23:48.285Z,24.09
2022-08-17T17:26:34.258Z,24.25
2022-08-17T17:29:05.126Z,24.36
2022-08-17T17:31:50.962Z,24.39
2022-08-17T17:34:18.404Z,24.34
2022-08-17T17:36:52.043Z,24.21
2022-08-17T17:39:44.152Z,24.32
2022-08-17T17:42:16.625Z,24.19
2022-08-17T17:45:03.912Z,24.10
2022-08-17T17:47:31.767Z,24.04
2022-08-17T17:50:01.353Z,24.08
2022-08-17T17:52:46.256Z,24.10
2022-08-17T17:55:15.658Z,23.96
2022-08-17T17:58:24.425Z,23.86
2022-08-17T18:01:09.683Z,23.90
2022-08-17T18:03:42.038Z,23.99
2022-08-17T18:06:10.323Z,24.08
2022-08-17T18:09:03.658Z,24.05
2022-08-17T18:11:54.139Z,23.94
2022-08-17T18:14:35.484Z,23.91
2022-08-17T18:17:02.241Z,23.92
2022-08-17T18:19:30.874Z,23.83
2022-08-17T18:22:13.132Z,23.83
2022-08-17T18:24:44.798Z,23.72
2022-08-17T18:27:23.356Z,23.76
2022-08-17T18:29:53.387Z,23.64
2022-08-17T18:32:34.495Z,23.62
2022-08-17T18:35:16.278Z,23.61
2022-08-17T18:37:51.440Z,23.64
2022-08-17T18:40:18.514Z,23.62
2022-08-17T18:42:56.029Z,23.55
2022-08-17T18:45:42.508Z,23.50
2022-08-17T18:48:27.520Z,23.27
2022-08-17T18:51:01.243Z,23.26
2022-08-17T18:53:34.497Z,23.29
2022-08-17T18:56:40.965Z,23.27
2022-08-17T18:59:23.614Z,23.18
2022-08-17T19:01:59.199Z,23.15
2022-08-17T19:04:32.778Z,23.11
2022-08-17T19:07:04.405Z,23.12
2022-08-17T19:09:36.024Z,23.10
2022-08-17T19:12:08.109Z,23.06
2022-08-17T19:14:35.816Z,23.02
2022-08-17T19:17:30.183Z,22.98
2022-08-17T19:20:17.588Z,22.89
2022-08-17T19:22:46.987Z,22.84
2022-08-17T19:25:23.156Z,22.83
2022-08-17T19:28:03.007Z,22.81
2022-08-17T19:30:30.278Z,22.76
2022-08-17T19:32:58.367Z,22.68
2022-08-17T19:35:34.115Z,22.58
2022-08-17T19:38:18.939Z,22.53
2022-08-17T19:41:00.675Z,22.27
2022-08-17T19:43:55.546Z,22.08
2022-08-17T19:46:26.089Z,21.96
2022-08-17T19:49:03.566Z,21.92
2022-08-17T19:51:46.175Z,22.00
2022-08-17T19:54:25.523Z,22.09
2022-08-17T19:57:01.698Z,22.02
2022-08-17T19:59:51.397Z,22.08
2022-08-17T20:02:37.458Z,22.04
2022-08-17T20:05:18.932Z,21.95
2022-08-17T20:08:00.572Z,21.83
2022-08-17T20:10:38.554Z,21.86
2022-08-17T20:13:14.990Z,21.66
2022-08-17T20:15:43.810Z,21.72
2022-08-17T20:18:50.796Z,21.78
2022-08-17T20:21:39.131Z,21.80
2022-08-17T20:24:44.758Z,21.79
2022-08-17T20:27:47.215Z,21.65
2022-08-17T20:30:40.779Z,21.58
2022-08-17T20:33:23.232Z,21.37
2022-08-17T20:36:11.912Z,21.09
2022-08-17T20:38:46.361Z,21.06
2022-08-17T20:41:17.131Z,21.02
2022-08-17T20:43:50.914Z,21.04
2022-08-17T20:46:35.607Z,21.13
2022-08-17T20:49:08.267Z,21.17
2022-08-17T20:52:02.537Z,21.22
2022-08-17T20:54:38.536Z,21.22
2022-08-17T20:57:13.723Z,21.23
2022-08-17T20:59:43.461Z,21.30
2022-08-17T21:02:19.943Z,21.32
2022-08-17T21:04:47.261Z,21.33
2022-08-17T21:07:48.550Z,21.36
2022-08-17T21:10:26.057Z,21.07
2022-08-17T21:13:00.115Z,21.05
2022-08-17T21:15:42.915Z,20.89
2022-08-17T21:18:27.985Z,20.73
2022-08-17T21:21:16.954Z,20.73
2022-08-17T21:23:52.892Z,20.68
2022-08-17T21:27:18.108Z,20.55
2022-08-17T21:30:10.129Z,20.35
2022-08-17T21:32:40.397Z,20.37
2022-08-17T21:35:12.344Z,20.45
2022-08-17T21:37:39.135Z,20.48
2022-08-17T21:40:17.975Z,20.56
2022-08-17T21:43:20.028Z,20.54
2022-08-17T21:45:55.698Z,20.42
2022-08-17T21:48:24.961Z,20.40
2022-08-17T21:51:03.713Z,20.26
2022-08-17T21:53:39.305Z,20.27
2022-08-17T21:56:07.254Z,20.22
2022-08-17T21:58:40.004Z,20.15
2022-08-17T22:01:17.195Z,20.16
2022-08-17T22:03:46.869Z,20.13
2022-08-17T22:06:56.658Z,20.18
2022-08-17T22:09:32.747Z,20.25
2022-08-17T22:12:05.310Z,20.07
2022-08-17T22:14:53.118Z,20.03
2022-08-17T22:17:25.050Z,20.00
2022-08-17T22:20:14.428Z,20.02
2022-08-17T22:23:08.573Z,20.03
2022-08-17T22:25:38.156Z,20.05
2022-08-17T22:28:08.186Z,20.02
2022-08-17T22:30:41.085Z,20.09
2022-08-17T22:33:36.416Z,20.12
2022-08-17T22:36:24.673Z,19.95
2022-08-17T22:38:58.131Z,19.66
2022-08-17T22:41:24.555Z,19.56
2022-08-17T22:43:52.415Z,19.45
2022-08-17T22:46:23.818Z,19.15
2022-08-17T22:48:54.925Z,19.29
2022-08-17T22:51:26.215Z,19.36
2022-08-17T22:54:15.313Z,19.47
2022-08-17T22:57:18.617Z,19.62
2022-08-17T22:59:49.342Z,19.73
2022-08-17T23:02:23.867Z,19.58
2022-08-17T23:04:54.347Z,19.32
2022-08-17T23:07:22.853Z,19.29
2022-08-17T23:09:51.047Z,19.37
2022-08-17T23:12:26.316Z,19.31
2022-08-17T23:15:00.488Z,19.32
2022-08-17T23:17:37.197Z,19.44
2022-08-17T23:20:08.399Z,19.55
2022-08-17T23:22:37.942Z,19.63
2022-08-17T23:25:27.043Z,19.72
2022-08-17T23:27:54.440Z,19.77
2022-08-17T23:30:28.505Z,19.79
2022-08-17T23:32:56.513Z,19.60
2022-08-17T23:35:39.683Z,19.55
2022-08-17T23:38:09.463Z,19.40
2022-08-17T23:40:36.248Z,19.28
2022-08-17T23:43:11.509Z,19.28
2022-08-17T23:45:59.589Z,19.31
2022-08-17T23:59:48.715Z,18.92
